Time;durP1;ratioP1;P1;durP2;ratioP2;P2;SDS_P1;SDS_P2;PMS_P1;PMS_P2;Temp;Humidity;BMP_temperature;BMP_pressure;BME280_temperature;BME280_humidity;BME280_pressure;Samples;Min_cycle;Max_cycle;Signal;HPM_P1;HPM_P2
2022/06/25 00:02:11;;;;;;;7.28;4.07;;;17.80;99.90;;;;;;4666417;28;9999843;-75
2022/06/25 00:07:21;;;;;;;6.72;4.18;;;17.80;99.90;;;;;;5021244;28;20112;-74
2022/06/25 00:09:46;;;;;;;6.53;4.43;;;17.80;99.90;;;;;;5009656;28;20101;-74
2022/06/25 00:14:56;;;;;;;4.72;4.00;;;17.80;99.90;;;;;;5022682;28;20032;-74
2022/06/25 00:17:21;;;;;;;5.78;3.97;;;17.90;99.90;;;;;;5014348;28;20029;-74
2022/06/25 00:19:47;;;;;;;7.60;4.38;;;17.80;99.90;;;;;;5015510;28;20025;-74
2022/06/25 00:22:13;;;;;;;5.25;3.80;;;17.80;99.90;;;;;;5022397;28;20390;-74
2022/06/25 00:24:39;;;;;;;7.82;4.43;;;17.80;99.90;;;;;;5024329;28;20367;-74
2022/06/25 00:27:05;;;;;;;7.15;4.28;;;17.80;99.90;;;;;;5018828;28;20021;-74
2022/06/25 00:29:30;;;;;;;8.52;4.97;;;17.80;99.90;;;;;;5014612;28;20034;-74
2022/06/25 00:31:56;;;;;;;6.75;4.65;;;17.80;99.90;;;;;;5022861;28;20537;-75
2022/06/25 00:34:21;;;;;;;6.82;4.20;;;17.80;99.90;;;;;;5020782;28;20050;-74
2022/06/25 00:36:47;;;;;;;6.20;4.18;;;17.80;99.90;;;;;;5016770;28;20470;-74
2022/06/25 00:39:13;;;;;;;5.07;4.57;;;17.80;99.90;;;;;;5020585;28;20038;-74
2022/06/25 00:41:38;;;;;;;4.90;4.38;;;17.90;99.90;;;;;;5016313;28;20045;-75
2022/06/25 00:44:08;;;;;;;4.78;4.20;;;17.80;99.90;;;;;;5014606;28;20026;-75
2022/06/25 00:46:34;;;;;;;5.05;4.57;;;17.80;99.90;;;;;;5008741;28;20490;-74
2022/06/25 00:49:00;;;;;;;8.35;5.18;;;17.80;99.90;;;;;;5014623;28;20052;-75
2022/06/25 00:51:27;;;;;;;6.47;4.57;;;17.90;99.90;;;;;;5016229;28;20466;-75
2022/06/25 00:53:56;;;;;;;6.40;5.78;;;17.90;99.90;;;;;;5009503;28;20113;-74
2022/06/25 00:56:24;;;;;;;7.15;5.28;;;17.90;99.90;;;;;;5018989;28;20032;-74
2022/06/25 00:58:52;;;;;;;6.97;5.38;;;17.90;99.90;;;;;;5013145;28;20501;-74
2022/06/25 01:01:19;;;;;;;10.75;5.50;;;17.80;99.90;;;;;;5012194;28;20045;-75
2022/06/25 01:03:44;;;;;;;8.95;5.38;;;17.80;99.90;;;;;;5015729;28;20029;-74
2022/06/25 01:06:10;;;;;;;7.38;5.60;;;17.80;99.90;;;;;;5018798;28;20029;-74
2022/06/25 01:08:36;;;;;;;6.07;5.20;;;17.80;99.90;;;;;;5017412;28;20033;-74
2022/06/25 01:11:03;;;;;;;11.10;6.15;;;17.80;99.90;;;;;;5018970;28;20395;-75
2022/06/25 01:13:29;;;;;;;8.75;5.70;;;17.70;99.90;;;;;;5019064;28;20030;-75
2022/06/25 01:15:54;;;;;;;8.10;5.80;;;17.70;99.90;;;;;;5013949;28;20032;-75
2022/06/25 01:18:20;;;;;;;11.30;6.68;;;17.70;99.90;;;;;;5016970;28;20136;-74
2022/06/25 01:20:45;;;;;;;7.43;6.68;;;17.70;99.90;;;;;;5015870;28;20458;-74
2022/06/25 01:23:12;;;;;;;8.25;6.50;;;17.70;99.90;;;;;;5019342;28;20333;-74
2022/06/25 01:25:40;;;;;;;7.10;6.40;;;17.60;99.90;;;;;;5019560;28;20084;-74
2022/06/25 01:28:06;;;;;;;7.45;6.57;;;17.60;99.90;;;;;;5015982;28;20509;-74
2022/06/25 01:30:33;;;;;;;8.32;6.07;;;17.50;99.90;;;;;;5015915;28;20033;-74
2022/06/25 01:32:58;;;;;;;12.88;6.95;;;17.50;99.90;;;;;;5018461;28;20033;-74
2022/06/25 01:35:24;;;;;;;10.52;5.90;;;17.50;99.90;;;;;;5013025;28;20057;-74
2022/06/25 01:37:50;;;;;;;8.15;6.68;;;17.40;99.90;;;;;;5017535;28;20099;-74
2022/06/25 01:40:16;;;;;;;7.95;6.50;;;17.40;99.90;;;;;;5015683;28;20112;-74
2022/06/25 01:43:00;;;;;;;8.75;5.85;;;17.40;99.90;;;;;;5025327;28;20037;-75
2022/06/25 01:45:30;;;;;;;8.43;6.28;;;17.40;99.90;;;;;;5027814;28;20349;-75
2022/06/25 01:47:58;;;;;;;8.68;5.97;;;17.40;99.90;;;;;;5020412;28;20033;-75
2022/06/25 01:50:24;;;;;;;9.48;6.60;;;17.40;99.90;;;;;;5022863;28;20044;-74
2022/06/25 01:52:50;;;;;;;7.43;5.75;;;17.30;99.90;;;;;;5025577;28;20209;-75
2022/06/25 01:55:16;;;;;;;11.77;6.50;;;17.30;99.90;;;;;;5023143;28;20545;-74
2022/06/25 01:57:42;;;;;;;10.98;6.28;;;17.30;99.90;;;;;;5023853;28;20174;-75
2022/06/25 02:00:11;;;;;;;7.43;6.53;;;17.30;99.90;;;;;;5016859;28;20083;-74
2022/06/25 02:02:37;;;;;;;10.10;6.88;;;17.30;99.90;;;;;;5023310;28;20082;-74
2022/06/25 02:05:05;;;;;;;8.77;6.78;;;17.30;99.90;;;;;;5014746;28;20496;-75
2022/06/25 02:07:30;;;;;;;9.57;6.95;;;17.20;99.90;;;;;;5016792;28;20029;-74
2022/06/25 02:09:56;;;;;;;10.13;6.82;;;17.20;99.90;;;;;;5017585;28;20022;-75
2022/06/25 02:12:22;;;;;;;9.18;6.78;;;17.20;99.90;;;;;;5023111;28;20382;-75
2022/06/25 02:14:47;;;;;;;13.88;8.52;;;17.20;99.90;;;;;;5024525;28;20393;-75
2022/06/25 02:17:13;;;;;;;11.48;7.65;;;17.20;99.90;;;;;;5020251;28;20469;-75
2022/06/25 02:19:38;;;;;;;11.80;7.57;;;17.20;99.90;;;;;;5019486;28;20021;-75
2022/06/25 02:22:04;;;;;;;12.27;7.25;;;17.20;99.90;;;;;;5024055;28;20350;-75
2022/06/25 02:24:30;;;;;;;9.63;7.07;;;17.20;99.90;;;;;;5021597;28;20118;-75
2022/06/25 02:26:56;;;;;;;11.68;6.32;;;17.30;99.90;;;;;;5024748;28;20124;-75
2022/06/25 02:29:21;;;;;;;16.77;7.72;;;17.30;99.90;;;;;;5023298;28;20021;-74
2022/06/25 02:31:47;;;;;;;9.68;7.13;;;17.30;99.90;;;;;;5024626;28;20108;-75
2022/06/25 02:34:12;;;;;;;8.43;6.88;;;17.30;99.90;;;;;;5021885;28;20292;-74
2022/06/25 02:36:38;;;;;;;12.05;7.50;;;17.40;99.90;;;;;;5018001;28;20041;-74
2022/06/25 02:39:04;;;;;;;10.85;7.22;;;17.40;99.90;;;;;;5023311;28;20029;-74
2022/06/25 02:41:29;;;;;;;12.75;7.47;;;17.40;99.90;;;;;;5023331;28;20104;-74
2022/06/25 02:43:55;;;;;;;9.57;7.32;;;17.30;99.90;;;;;;5017242;28;20026;-74
2022/06/25 02:46:20;;;;;;;13.07;9.15;;;17.30;99.90;;;;;;5010703;28;20037;-74
2022/06/25 02:48:46;;;;;;;10.52;6.75;;;17.30;99.90;;;;;;5023623;28;20030;-74
2022/06/25 02:51:12;;;;;;;11.93;7.93;;;17.30;99.90;;;;;;5009382;28;20069;-74
2022/06/25 02:53:37;;;;;;;17.15;8.38;;;17.40;99.90;;;;;;5016463;28;20108;-74
2022/06/25 02:58:55;;;;;;;14.75;8.93;;;17.40;99.90;;;;;;5017686;28;20055;-74
2022/06/25 03:01:25;;;;;;;14.13;9.30;;;17.30;99.90;;;;;;5024428;28;20080;-74
2022/06/25 03:03:52;;;;;;;14.27;8.80;;;17.40;99.90;;;;;;5023819;28;20041;-74
2022/06/25 03:06:18;;;;;;;12.68;9.43;;;17.30;99.90;;;;;;5021614;28;20305;-74
2022/06/25 03:08:45;;;;;;;13.98;8.98;;;17.30;99.90;;;;;;5020300;28;20105;-75
2022/06/25 03:11:11;;;;;;;14.38;9.60;;;17.20;99.90;;;;;;5009748;28;20088;-74
2022/06/25 03:13:37;;;;;;;12.45;9.32;;;17.20;99.90;;;;;;5026484;28;20485;-74
2022/06/25 03:16:04;;;;;;;10.55;8.95;;;17.20;99.90;;;;;;5018930;28;20478;-75
2022/06/25 03:18:30;;;;;;;10.32;9.15;;;17.20;99.90;;;;;;5015645;28;20029;-74
2022/06/25 03:20:56;;;;;;;13.20;9.82;;;17.20;99.90;;;;;;5015076;28;20029;-75
2022/06/25 03:23:22;;;;;;;14.07;9.45;;;17.10;99.90;;;;;;5016105;28;20563;-74
2022/06/25 03:25:48;;;;;;;14.07;10.73;;;17.10;99.90;;;;;;5011346;28;20036;-75
2022/06/25 03:28:15;;;;;;;14.10;10.02;;;17.10;99.90;;;;;;5015740;28;20080;-74
2022/06/25 03:30:40;;;;;;;14.35;9.85;;;17.10;99.90;;;;;;5015021;28;20044;-74
2022/06/25 03:33:06;;;;;;;16.00;10.07;;;17.10;99.90;;;;;;5017810;28;20033;-75
2022/06/25 03:35:32;;;;;;;17.60;10.43;;;17.10;99.90;;;;;;5003785;28;20077;-75
2022/06/25 03:37:57;;;;;;;12.65;9.38;;;17.10;99.90;;;;;;4991950;28;20026;-74
2022/06/25 03:40:23;;;;;;;12.52;10.00;;;17.10;99.90;;;;;;4993823;28;20691;-74
2022/06/25 03:42:49;;;;;;;14.32;10.52;;;17.10;99.90;;;;;;4991020;28;20053;-75
2022/06/25 03:45:15;;;;;;;15.75;11.15;;;17.10;99.90;;;;;;4999170;28;20097;-75
2022/06/25 03:47:40;;;;;;;15.80;10.93;;;17.10;99.90;;;;;;5002783;28;20025;-74
2022/06/25 03:50:07;;;;;;;15.20;10.73;;;17.00;99.90;;;;;;5000984;28;20494;-74
2022/06/25 03:52:33;;;;;;;13.48;10.73;;;17.00;99.90;;;;;;4993144;28;20042;-74
2022/06/25 03:54:58;;;;;;;16.15;11.07;;;17.00;99.90;;;;;;4999878;28;20036;-74
2022/06/25 03:57:24;;;;;;;12.63;10.45;;;17.00;99.90;;;;;;4999527;28;20026;-75
2022/06/25 03:59:51;;;;;;;16.38;10.32;;;17.00;99.90;;;;;;4995334;28;20037;-74
2022/06/25 04:02:16;;;;;;;11.77;10.23;;;17.00;99.90;;;;;;5001518;28;20405;-74
2022/06/25 04:04:42;;;;;;;13.45;10.55;;;17.00;99.90;;;;;;4991337;28;20235;-74
2022/06/25 04:07:08;;;;;;;12.65;9.77;;;17.00;99.90;;;;;;5001314;28;20050;-74
2022/06/25 04:09:33;;;;;;;14.38;10.50;;;17.00;99.90;;;;;;4998148;28;20371;-74
2022/06/25 04:11:59;;;;;;;11.57;9.88;;;17.00;99.90;;;;;;4996052;28;20042;-74
2022/06/25 04:14:24;;;;;;;13.10;9.55;;;17.30;99.90;;;;;;4998607;28;20062;-74
2022/06/25 04:16:50;;;;;;;9.95;8.95;;;18.50;99.90;;;;;;5000610;28;20108;-74
2022/06/25 04:19:15;;;;;;;12.45;8.23;;;19.70;99.90;;;;;;5003405;28;20037;-74
2022/06/25 04:21:42;;;;;;;15.23;8.80;;;19.40;99.90;;;;;;4998831;28;20584;-74
2022/06/25 04:24:07;;;;;;;17.02;8.73;;;19.50;99.90;;;;;;5003139;28;20030;-74
2022/06/25 04:26:33;;;;;;;9.70;8.15;;;19.90;99.90;;;;;;5001174;28;20501;-74
2022/06/25 04:29:04;;;;;;;9.38;8.18;;;20.50;99.90;;;;;;4990082;28;20092;-74
2022/06/25 04:31:37;;;;;;;13.00;7.90;;;20.40;99.90;;;;;;5001140;28;20026;-75
2022/06/25 04:34:04;;;;;;;10.80;7.45;;;20.10;99.90;;;;;;4998095;28;20037;-74
2022/06/25 04:36:30;;;;;;;10.90;7.30;;;19.80;99.90;;;;;;5020146;28;20512;-74
2022/06/25 04:38:56;;;;;;;9.77;7.35;;;19.70;99.90;;;;;;5021230;28;20033;-74
2022/06/25 04:41:22;;;;;;;8.93;6.40;;;19.60;99.90;;;;;;5011500;28;20034;-74
2022/06/25 04:43:48;;;;;;;13.15;6.82;;;19.60;99.90;;;;;;5018150;28;20024;-74
2022/06/25 04:46:14;;;;;;;8.52;5.90;;;19.50;99.90;;;;;;5023125;28;20033;-75
2022/06/25 04:48:40;;;;;;;8.20;6.15;;;19.50;99.90;;;;;;5023208;28;20021;-74
2022/06/25 04:51:06;;;;;;;9.35;5.68;;;19.60;99.90;;;;;;5020902;28;20657;-74
2022/06/25 04:53:32;;;;;;;10.93;5.47;;;19.70;99.90;;;;;;5021432;28;20036;-75
2022/06/25 04:55:58;;;;;;;7.03;5.18;;;19.80;99.90;;;;;;5023251;28;20021;-73
2022/06/25 04:58:23;;;;;;;7.63;5.55;;;19.80;99.90;;;;;;5022815;28;20116;-74
2022/06/25 05:00:49;;;;;;;10.88;4.93;;;19.80;99.90;;;;;;5020395;28;20037;-74
2022/06/25 05:03:15;;;;;;;6.85;4.32;;;19.80;99.90;;;;;;5017824;28;20076;-73
2022/06/25 05:05:41;;;;;;;8.73;4.93;;;19.80;99.90;;;;;;5016187;28;20032;-73
2022/06/25 05:08:06;;;;;;;11.00;4.68;;;19.90;99.90;;;;;;5015307;28;20032;-74
2022/06/25 05:10:32;;;;;;;7.95;5.15;;;20.00;99.90;;;;;;5013841;28;20554;-74
2022/06/25 05:13:13;;;;;;;6.18;4.70;;;20.20;99.90;;;;;;5021836;28;20033;-75
2022/06/25 05:15:39;;;;;;;6.65;4.00;;;20.40;99.90;;;;;;5022743;28;20442;-75
2022/06/25 05:18:06;;;;;;;6.35;4.05;;;20.50;99.90;;;;;;5026100;28;20021;-75
2022/06/25 05:20:35;;;;;;;7.68;4.25;;;20.50;99.90;;;;;;5017891;28;20033;-75
2022/06/25 05:23:00;;;;;;;6.75;3.90;;;20.50;99.90;;;;;;5011064;28;20385;-75
2022/06/25 05:25:26;;;;;;;5.43;3.78;;;20.40;99.90;;;;;;5020194;28;20030;-75
2022/06/25 05:27:52;;;;;;;6.20;3.90;;;20.20;99.90;;;;;;5022287;28;20496;-74
2022/06/25 05:30:17;;;;;;;4.05;3.35;;;20.10;99.90;;;;;;5028811;28;20033;-75
2022/06/25 05:32:43;;;;;;;7.85;3.75;;;19.90;99.90;;;;;;5018939;28;20510;-75
2022/06/25 05:35:08;;;;;;;6.25;3.92;;;19.80;99.90;;;;;;5010588;28;20046;-75
2022/06/25 05:37:34;;;;;;;5.80;4.10;;;19.70;99.90;;;;;;5016628;28;20177;-75
2022/06/25 05:39:59;;;;;;;6.22;3.67;;;19.60;99.90;;;;;;5026036;28;20033;-75
2022/06/25 05:42:25;;;;;;;5.60;3.33;;;19.50;99.90;;;;;;5019548;28;20082;-75
2022/06/25 05:44:51;;;;;;;6.55;3.60;;;19.50;99.90;;;;;;5023426;28;20033;-76
2022/06/25 05:47:16;;;;;;;4.28;3.47;;;19.50;99.90;;;;;;5022068;28;20119;-75
2022/06/25 05:49:42;;;;;;;4.97;3.30;;;19.80;99.90;;;;;;5013695;28;20021;-75
2022/06/25 05:52:08;;;;;;;6.10;3.33;;;20.10;99.90;;;;;;5026935;28;20034;-75
2022/06/25 05:54:33;;;;;;;9.50;3.58;;;20.40;99.90;;;;;;5024129;28;20054;-75
2022/06/25 05:56:59;;;;;;;3.78;2.78;;;20.70;99.90;;;;;;5028111;28;20370;-75
2022/06/25 05:59:24;;;;;;;6.05;3.00;;;20.80;99.90;;;;;;5025390;28;20032;-75
2022/06/25 06:01:50;;;;;;;4.47;2.90;;;21.00;99.90;;;;;;5025658;28;20520;-75
2022/06/25 06:04:15;;;;;;;7.53;3.50;;;21.20;99.90;;;;;;5028271;28;20029;-76
2022/06/25 06:06:41;;;;;;;7.43;3.42;;;21.30;99.90;;;;;;5021221;28;20057;-75
2022/06/25 06:09:07;;;;;;;8.98;3.60;;;21.40;99.90;;;;;;5026455;28;20439;-74
2022/06/25 06:11:32;;;;;;;4.63;3.03;;;21.60;99.90;;;;;;5020986;28;20426;-75
2022/06/25 06:13:58;;;;;;;3.88;2.63;;;21.80;99.90;;;;;;5028507;28;20029;-75
2022/06/25 06:16:23;;;;;;;6.07;2.88;;;22.10;99.90;;;;;;5021448;28;20040;-74
2022/06/25 06:18:49;;;;;;;5.80;2.63;;;22.30;99.90;;;;;;5024023;28;20076;-75
2022/06/25 06:21:14;;;;;;;3.50;2.30;;;22.50;99.90;;;;;;5025192;28;20498;-74
2022/06/25 06:23:40;;;;;;;4.65;2.38;;;22.50;99.90;;;;;;5028373;28;20370;-75
2022/06/25 06:26:06;;;;;;;2.95;2.50;;;22.50;99.90;;;;;;5020385;28;20038;-74
2022/06/25 06:28:31;;;;;;;5.70;2.22;;;22.40;99.90;;;;;;5023163;28;20017;-74
2022/06/25 06:30:57;;;;;;;4.10;2.17;;;22.50;99.90;;;;;;5026146;28;20071;-75
2022/06/25 06:33:23;;;;;;;7.03;2.80;;;22.50;99.90;;;;;;5018232;28;20558;-73
2022/06/25 06:35:49;;;;;;;4.97;2.60;;;22.60;99.90;;;;;;5015636;28;20549;-72
2022/06/25 06:38:15;;;;;;;4.78;2.78;;;22.70;99.90;;;;;;5011360;28;20026;-72
2022/06/25 06:40:41;;;;;;;3.95;2.60;;;22.70;99.90;;;;;;5028329;28;20079;-71
2022/06/25 06:43:06;;;;;;;8.63;2.60;;;22.70;99.90;;;;;;5021648;28;20058;-72
2022/06/25 06:45:32;;;;;;;5.95;2.80;;;22.80;99.90;;;;;;5009151;28;20026;-72
2022/06/25 06:47:57;;;;;;;3.10;2.20;;;22.90;99.90;;;;;;5008819;28;20018;-72
2022/06/25 06:50:23;;;;;;;4.47;2.28;;;22.90;99.90;;;;;;5025713;28;20060;-72
2022/06/25 06:52:49;;;;;;;4.72;1.95;;;23.10;99.90;;;;;;5027520;28;20120;-72
2022/06/25 06:55:14;;;;;;;5.05;1.90;;;23.30;99.90;;;;;;5023088;28;20049;-72
2022/06/25 06:57:40;;;;;;;5.15;2.05;;;23.50;99.90;;;;;;5008816;28;20402;-72
2022/06/25 07:00:06;;;;;;;6.63;2.33;;;23.60;99.90;;;;;;5015155;28;20037;-72
2022/06/25 07:02:33;;;;;;;9.85;2.20;;;23.60;99.90;;;;;;5021758;28;20029;-73
2022/06/25 07:04:59;;;;;;;1.85;1.67;;;23.60;99.90;;;;;;5027753;28;20116;-72
2022/06/25 07:07:25;;;;;;;7.45;2.10;;;23.40;99.90;;;;;;5025321;28;20120;-72
2022/06/25 07:09:50;;;;;;;3.35;1.88;;;23.30;99.90;;;;;;5025345;28;20050;-72
2022/06/25 07:12:16;;;;;;;2.40;1.80;;;23.40;99.90;;;;;;5019627;28;20026;-72
2022/06/25 07:14:42;;;;;;;3.42;2.00;;;23.50;99.90;;;;;;5027898;28;20031;-72
2022/06/25 07:17:07;;;;;;;5.95;2.10;;;23.70;99.90;;;;;;5020487;28;20030;-73
2022/06/25 07:19:33;;;;;;;4.10;1.98;;;23.60;99.90;;;;;;5015167;28;20041;-73
2022/06/25 07:21:59;;;;;;;4.57;2.30;;;23.30;99.90;;;;;;5017428;28;20421;-73
2022/06/25 07:24:24;;;;;;;5.47;2.33;;;23.10;99.90;;;;;;5009859;28;20492;-72
2022/06/25 07:26:50;;;;;;;4.13;2.08;;;22.90;99.90;;;;;;5024333;28;20151;-74
2022/06/25 07:29:16;;;;;;;3.20;1.98;;;22.70;99.90;;;;;;5016204;28;20489;-74
2022/06/25 07:31:42;;;;;;;3.92;2.00;;;22.80;99.90;;;;;;5017454;28;20036;-74
2022/06/25 07:34:08;;;;;;;2.70;1.83;;;23.10;99.90;;;;;;5022137;28;20050;-74
2022/06/25 07:36:33;;;;;;;4.88;2.15;;;23.30;99.90;;;;;;5023811;28;20033;-74
2022/06/25 07:39:00;;;;;;;6.43;2.20;;;23.50;99.90;;;;;;5011878;28;20038;-74
2022/06/25 07:41:26;;;;;;;2.80;1.90;;;23.80;99.90;;;;;;5018708;28;20586;-74
2022/06/25 07:43:52;;;;;;;4.20;1.90;;;24.00;99.90;;;;;;5025199;28;20031;-74
2022/06/25 07:46:18;;;;;;;6.88;2.08;;;24.20;99.90;;;;;;5023502;28;20374;-74
2022/06/25 07:48:44;;;;;;;2.17;1.77;;;24.60;99.90;;;;;;5014972;28;20029;-74
2022/06/25 07:53:54;;;;;;;2.40;1.48;;;24.90;99.90;;;;;;5020540;28;20068;-74
2022/06/25 07:56:19;;;;;;;7.03;1.80;;;24.80;99.90;;;;;;5018873;28;20457;-74
2022/06/25 07:58:45;;;;;;;2.60;1.80;;;24.80;99.90;;;;;;5024105;28;20029;-74
2022/06/25 08:01:11;;;;;;;2.78;1.60;;;24.80;99.90;;;;;;5023487;28;20501;-74
2022/06/25 08:03:37;;;;;;;5.40;1.60;;;24.90;99.90;;;;;;5026511;28;20030;-75
2022/06/25 08:06:02;;;;;;;5.50;1.60;;;25.10;99.90;;;;;;5024591;28;20030;-75
2022/06/25 08:08:28;;;;;;;3.63;1.50;;;25.40;99.90;;;;;;5025099;28;20032;-75
2022/06/25 08:10:54;;;;;;;3.97;2.17;;;25.40;99.90;;;;;;5017512;28;20057;-74
2022/06/25 08:13:20;;;;;;;3.70;1.80;;;25.50;99.90;;;;;;5025192;28;20036;-74
2022/06/25 08:15:46;;;;;;;4.35;1.85;;;25.40;99.90;;;;;;5017328;28;20037;-75
2022/06/25 08:18:11;;;;;;;4.85;1.92;;;25.40;99.90;;;;;;5022252;28;20037;-74
2022/06/25 08:20:37;;;;;;;1.70;1.60;;;25.10;99.90;;;;;;5024368;28;20493;-74
2022/06/25 08:23:02;;;;;;;6.07;2.08;;;24.60;99.90;;;;;;5023878;28;20040;-74
2022/06/25 08:25:28;;;;;;;2.58;1.80;;;24.40;99.90;;;;;;5023543;28;20044;-75
2022/06/25 08:27:54;;;;;;;1.85;1.60;;;24.40;99.90;;;;;;5020547;28;20071;-74
2022/06/25 08:30:20;;;;;;;2.72;1.80;;;24.40;99.90;;;;;;5019522;28;20033;-75
2022/06/25 08:32:47;;;;;;;5.90;1.90;;;24.40;99.90;;;;;;5012165;28;20025;-75
2022/06/25 08:35:13;;;;;;;3.42;1.70;;;24.50;99.90;;;;;;5010151;28;20061;-75
2022/06/25 08:37:42;;;;;;;4.90;1.77;;;24.40;99.90;;;;;;5020346;28;20446;-74
2022/06/25 08:40:08;;;;;;;5.82;2.00;;;24.30;99.90;;;;;;5016932;28;20037;-74
2022/06/25 08:42:34;;;;;;;3.45;1.80;;;24.30;99.90;;;;;;5010908;28;20504;-75
2022/06/25 08:45:00;;;;;;;4.72;1.83;;;24.30;99.90;;;;;;5026207;28;20131;-74
2022/06/25 08:47:26;;;;;;;6.00;1.60;;;24.30;99.90;;;;;;5022613;28;20040;-74
2022/06/25 08:49:53;;;;;;;4.63;1.67;;;24.40;99.90;;;;;;5023279;28;20234;-74
2022/06/25 08:52:19;;;;;;;4.75;1.60;;;24.70;99.90;;;;;;5020815;28;20500;-74
2022/06/25 08:54:45;;;;;;;1.92;1.70;;;25.10;99.90;;;;;;5027086;28;20038;-74
2022/06/25 08:57:11;;;;;;;2.60;1.60;;;25.40;99.90;;;;;;5029985;28;20116;-74
2022/06/25 08:59:38;;;;;;;8.38;1.90;;;25.60;99.90;;;;;;5019804;28;20454;-74
2022/06/25 09:02:04;;;;;;;5.78;1.63;;;25.80;99.90;;;;;;5010788;28;20024;-74
2022/06/25 09:04:31;;;;;;;4.25;1.73;;;26.00;99.90;;;;;;5018523;28;20032;-74
2022/06/25 09:07:14;;;;;;;3.97;1.50;;;26.20;99.90;;;;;;5027084;28;20017;-74
2022/06/25 09:09:44;;;;;;;6.10;1.77;;;26.30;99.90;;;;;;5023246;28;20029;-74
2022/06/25 09:12:13;;;;;;;2.35;1.60;;;26.40;99.90;;;;;;5025327;28;20045;-74
2022/06/25 09:14:39;;;;;;;2.40;1.50;;;26.50;99.90;;;;;;5018520;28;20041;-74
2022/06/25 09:17:12;;;;;;;4.43;1.65;;;26.30;99.90;;;;;;5022313;28;20103;-74
2022/06/25 09:19:42;;;;;;;3.03;1.60;;;26.50;99.90;;;;;;5017185;28;20119;-74
2022/06/25 09:22:14;;;;;;;2.45;1.50;;;26.60;99.90;;;;;;5020646;28;20025;-74
2022/06/25 09:24:42;;;;;;;3.60;1.60;;;26.80;99.90;;;;;;5025731;28;20485;-74
2022/06/25 09:27:08;;;;;;;2.85;1.42;;;27.00;99.70;;;;;;5022266;28;20026;-74
2022/06/25 09:29:39;;;;;;;6.38;1.65;;;27.10;99.70;;;;;;5027352;28;20029;-75
2022/06/25 09:32:05;;;;;;;2.35;1.40;;;27.20;99.30;;;;;;5021289;28;20180;-75
2022/06/25 09:34:35;;;;;;;2.08;1.50;;;27.10;98.30;;;;;;5024393;28;20048;-74
2022/06/25 09:37:22;;;;;;;4.07;1.73;;;27.00;98.50;;;;;;5019496;28;20038;-75
2022/06/25 09:39:49;;;;;;;5.95;1.67;;;27.00;98.30;;;;;;5028036;28;20032;-75
2022/06/25 09:42:26;;;;;;;2.28;1.30;;;27.10;98.30;;;;;;5022085;28;20057;-76
2022/06/25 09:45:12;;;;;;;3.67;1.60;;;27.00;98.20;;;;;;5023936;28;20075;-74
2022/06/25 09:47:43;;;;;;;7.18;1.40;;;26.80;98.00;;;;;;5026407;28;20029;-75
2022/06/25 09:50:17;;;;;;;4.22;1.48;;;26.80;98.10;;;;;;5022540;28;20455;-74
2022/06/25 09:52:55;;;;;;;2.47;1.50;;;26.80;98.00;;;;;;5029504;28;20468;-74
2022/06/25 09:55:23;;;;;;;3.22;1.40;;;26.80;98.50;;;;;;5022265;28;20033;-75
2022/06/25 09:57:51;;;;;;;2.45;1.42;;;27.00;98.50;;;;;;5019265;28;20025;-74
2022/06/25 10:00:18;;;;;;;4.43;1.73;;;27.00;96.60;;;;;;5015857;28;20117;-74
2022/06/25 10:02:48;;;;;;;2.70;1.45;;;26.80;96.50;;;;;;5010909;28;20092;-77
2022/06/25 10:05:18;;;;;;;5.70;1.33;;;26.50;97.30;;;;;;5028195;28;20026;-74
2022/06/25 10:10:50;;;;;;;4.68;1.48;;;26.00;97.90;;;;;;5026860;28;20238;-74
2022/06/25 10:13:16;;;;;;;1.60;1.45;;;25.90;98.60;;;;;;5011801;28;20026;-74
2022/06/25 10:15:44;;;;;;;3.20;1.70;;;26.00;98.90;;;;;;5025932;28;20036;-74
2022/06/25 10:18:10;;;;;;;2.88;1.45;;;26.20;96.80;;;;;;5010836;28;20030;-74
2022/06/25 10:20:37;;;;;;;2.88;1.42;;;26.20;96.80;;;;;;5024220;28;20021;-74
2022/06/25 10:23:05;;;;;;;7.20;1.67;;;26.00;97.50;;;;;;5023675;28;20041;-75
2022/06/25 10:25:31;;;;;;;2.55;1.52;;;26.00;97.20;;;;;;5027432;28;20021;-75
2022/06/25 10:28:07;;;;;;;6.53;1.90;;;25.90;98.70;;;;;;5013537;28;20478;-74
2022/06/25 10:30:53;;;;;;;6.88;1.90;;;26.00;99.10;;;;;;5025959;28;20036;-74
2022/06/25 10:33:24;;;;;;;4.78;1.92;;;26.10;98.70;;;;;;5019277;28;20038;-74
2022/06/25 10:35:54;;;;;;;5.40;1.85;;;26.30;99.00;;;;;;5010283;28;20045;-74
2022/06/25 10:38:22;;;;;;;4.18;2.00;;;26.50;99.70;;;;;;5029432;28;20677;-74
2022/06/25 10:42:58;;;;;;;4.60;2.00;;;26.60;98.60;;;;;;5025734;28;20022;-74
2022/06/25 10:43:47;;;;;;;4.05;3.65;;;26.90;97.70;;;;;;5019016;28;20034;-75
2022/06/25 10:46:30;;;;;;;6.70;1.80;;;27.20;96.30;;;;;;5008810;28;20394;-74
2022/06/25 10:49:07;;;;;;;4.65;1.50;;;27.30;94.90;;;;;;5023582;28;20030;-75
2022/06/25 10:51:43;;;;;;;3.80;1.50;;;27.50;93.80;;;;;;5021792;28;20190;-74
2022/06/25 10:54:24;;;;;;;3.47;1.27;;;27.50;94.80;;;;;;5023300;28;20033;-74
2022/06/25 10:56:51;;;;;;;5.47;1.60;;;27.40;93.30;;;;;;5027175;28;20026;-74
2022/06/25 10:59:32;;;;;;;1.45;1.35;;;27.10;94.20;;;;;;5012794;28;20099;-74
2022/06/25 11:01:59;;;;;;;1.50;1.20;;;27.00;94.20;;;;;;5020901;28;20113;-74
2022/06/25 11:04:28;;;;;;;2.25;1.13;;;27.10;92.90;;;;;;5019418;28;20448;-74
2022/06/25 11:07:17;;;;;;;2.88;1.10;;;27.30;92.20;;;;;;5026346;28;20029;-74
2022/06/25 11:09:51;;;;;;;2.15;1.00;;;27.60;90.70;;;;;;5024016;28;20026;-73
2022/06/25 11:12:17;;;;;;;3.13;1.30;;;27.90;89.10;;;;;;5019619;28;20025;-74
2022/06/25 11:14:48;;;;;;;2.35;1.08;;;27.90;86.90;;;;;;5023548;28;20497;-74
2022/06/25 11:17:13;;;;;;;1.77;1.30;;;27.70;88.00;;;;;;5023583;28;20108;-73
2022/06/25 11:19:42;;;;;;;4.35;1.40;;;27.60;88.80;;;;;;5020619;28;20155;-73
2022/06/25 11:22:07;;;;;;;5.60;2.55;;;27.60;86.60;;;;;;5019962;28;20580;-73
2022/06/25 11:24:33;;;;;;;5.05;1.42;;;27.60;86.90;;;;;;5028099;28;20156;-73
2022/06/25 11:29:49;;;;;;;3.92;1.25;;;27.60;87.80;;;;;;5027720;28;20143;-73
2022/06/25 11:32:20;;;;;;;3.25;1.38;;;27.70;88.20;;;;;;5026185;28;20022;-73
2022/06/25 11:34:58;;;;;;;26.10;1.70;;;27.80;89.20;;;;;;5059548;28;20399;-73
2022/06/25 11:37:24;;;;;;;4.28;1.40;;;27.90;88.10;;;;;;5046350;28;20087;-73
2022/06/25 11:39:51;;;;;;;3.92;1.40;;;28.00;88.10;;;;;;5035968;28;20021;-73
2022/06/25 11:42:17;;;;;;;2.33;1.40;;;28.00;85.20;;;;;;5038495;28;20029;-73
2022/06/25 11:44:49;;;;;;;3.33;1.38;;;28.10;84.90;;;;;;5042205;28;20049;-73
2022/06/25 11:47:19;;;;;;;4.10;1.25;;;28.20;83.80;;;;;;5041930;28;20585;-73
2022/06/25 11:49:46;;;;;;;1.83;1.60;;;28.30;83.90;;;;;;5045685;28;20033;-73
2022/06/25 11:52:13;;;;;;;4.28;1.30;;;28.30;82.10;;;;;;5043151;28;20117;-73
2022/06/25 11:54:41;;;;;;;2.40;1.20;;;28.10;83.30;;;;;;5035183;28;20036;-73
2022/06/25 11:57:09;;;;;;;3.20;1.38;;;28.20;82.10;;;;;;5039930;28;20013;-73
2022/06/25 11:59:37;;;;;;;2.13;1.40;;;28.20;80.40;;;;;;5037429;28;20029;-73
2022/06/25 12:02:07;;;;;;;3.60;1.40;;;28.10;79.20;;;;;;5038211;28;20026;-73
2022/06/25 12:04:59;;;;;;;1.25;1.13;;;28.20;82.20;;;;;;5040884;28;20151;-73
2022/06/25 12:07:32;;;;;;;3.03;1.08;;;28.30;78.20;;;;;;5038082;28;20064;-73
2022/06/25 12:10:00;;;;;;;2.65;1.40;;;28.50;77.70;;;;;;5036099;28;20029;-73
2022/06/25 12:12:27;;;;;;;4.18;1.20;;;28.70;78.20;;;;;;5041549;28;20029;-74
2022/06/25 12:14:54;;;;;;;6.82;1.20;;;28.80;77.40;;;;;;5037007;28;20033;-73
2022/06/25 12:17:20;;;;;;;1.77;1.15;;;28.90;76.20;;;;;;5039238;28;20044;-73
2022/06/25 12:19:51;;;;;;;3.22;1.15;;;28.90;76.90;;;;;;5036898;28;20108;-73
2022/06/25 12:22:29;;;;;;;3.83;1.10;;;29.10;74.10;;;;;;5045069;28;20240;-74
2022/06/25 12:25:00;;;;;;;1.08;0.77;;;29.10;75.50;;;;;;5030585;28;20021;-74
2022/06/25 12:27:26;;;;;;;3.70;0.90;;;29.20;71.10;;;;;;5037225;28;20059;-73
2022/06/25 12:29:55;;;;;;;2.05;0.90;;;29.30;70.10;;;;;;5042502;28;20036;-73
2022/06/25 12:32:41;;;;;;;2.97;1.00;;;29.40;69.70;;;;;;5046372;28;20036;-73
2022/06/25 12:35:33;;;;;;;1.52;0.90;;;29.50;68.20;;;;;;5039968;28;20386;-73
2022/06/25 12:38:10;;;;;;;2.83;0.97;;;29.40;67.20;;;;;;5039067;28;20102;-73
2022/06/25 12:40:44;;;;;;;1.42;0.80;;;29.40;65.40;;;;;;5040785;28;20440;-73
2022/06/25 12:43:11;;;;;;;3.58;0.90;;;29.30;64.80;;;;;;5038403;28;20147;-73
2022/06/25 12:45:39;;;;;;;3.17;0.98;;;29.20;64.10;;;;;;5029634;28;20041;-73
2022/06/25 12:48:06;;;;;;;3.00;1.10;;;29.10;67.60;;;;;;5023874;28;20441;-73
2022/06/25 12:50:34;;;;;;;2.33;1.10;;;29.10;67.80;;;;;;5027222;28;20029;-73
2022/06/25 12:53:10;;;;;;;1.10;1.00;;;29.00;69.60;;;;;;5021461;28;20065;-73
2022/06/25 12:55:37;;;;;;;3.90;1.20;;;29.10;69.80;;;;;;5028844;28;20030;-73
2022/06/25 12:58:09;;;;;;;1.00;0.90;;;29.20;70.90;;;;;;5029194;28;20389;-73
2022/06/25 13:00:37;;;;;;;2.17;0.90;;;29.40;71.50;;;;;;5017566;28;20506;-73
2022/06/25 13:03:05;;;;;;;1.85;0.93;;;29.50;65.80;;;;;;5023049;28;20041;-73